Neahkahnie, Oregon
Current Conditions -  °F | °C
As of 1:35 AM on Wednesday 22 Oct 2014 (Local Time) from KTMK Reporting Station
Drizzle Drizzle  
Wind Chill: 59°   Ceiling: 2400
Heat Index: 59°   Visibility: 10mi
Dew Point: 55°   Wind: 17mph
Humidity: 88%   Direction: 160°SSE
Pressure: 29.76"   Gusts: 23mph
Location:  45.7222°N, 123.684°W
Report Text: KTMK 220835Z AUTO 16015G20KT 10SM -DZ BKN024 OVC029 15/13 A2976 RMK AO2
Loading
Personal Weather Stations






























Interactive Weather Map
Tropical Storm Tracking
New forecast layout! Learn more

10-Day Weather Forecast

Advertisements
Track Severe Weather on mobile